createdAt,value
2017-03-10T16:19:13.771Z,16.78
2017-03-10T16:20:12.782Z,14.50
2017-03-10T16:21:12.210Z,19.40
2017-03-10T16:22:11.213Z,16.67
2017-03-10T16:23:09.790Z,11.73
2017-03-10T16:24:08.753Z,13.35
2017-03-10T16:25:07.864Z,14.80
2017-03-10T16:26:06.822Z,14.98
2017-03-10T16:27:05.386Z,22.73
2017-03-10T16:28:03.927Z,16.57
2017-03-10T16:29:03.162Z,18.53
2017-03-10T16:30:02.202Z,15.33
2017-03-10T16:31:01.152Z,13.85
2017-03-10T16:32:00.099Z,11.50
2017-03-10T16:32:59.090Z,22.87
2017-03-10T16:33:57.670Z,15.85
2017-03-10T16:34:56.702Z,19.65
2017-03-10T16:35:55.797Z,15.47
2017-03-10T16:36:54.762Z,11.92
2017-03-10T16:37:53.366Z,12.70
2017-03-10T16:38:52.398Z,15.97
2017-03-10T16:39:51.507Z,19.40
2017-03-10T16:40:50.725Z,11.78
2017-03-10T16:41:49.687Z,18.47
2017-03-10T16:42:48.662Z,12.30
2017-03-10T16:43:47.254Z,20.72
2017-03-10T16:44:46.225Z,10.75
2017-03-10T16:45:45.342Z,13.38
2017-03-10T16:46:44.316Z,14.27
2017-03-10T16:47:43.437Z,15.10
2017-03-10T16:48:42.429Z,16.53
2017-03-10T16:49:41.445Z,16.82
2017-03-10T16:50:40.527Z,14.78
2017-03-10T16:51:39.482Z,16.33
2017-03-10T16:52:38.474Z,14.73
2017-03-10T16:53:37.074Z,15.83
2017-03-10T16:54:35.672Z,16.57
2017-03-10T16:55:34.635Z,13.75
2017-03-10T16:56:33.593Z,19.15
2017-03-10T16:57:32.628Z,9.92
2017-03-10T16:58:31.619Z,15.72
2017-03-10T16:59:30.643Z,14.08
2017-03-10T17:00:29.627Z,19.02
2017-03-10T17:01:28.672Z,20.95
2017-03-10T17:02:27.724Z,16.83
2017-03-10T17:03:27.066Z,24.57
2017-03-10T17:04:26.023Z,23.25
2017-03-10T17:05:24.979Z,21.33
2017-03-10T17:06:23.952Z,17.13
2017-03-10T17:07:22.942Z,17.63
2017-03-10T17:08:22.081Z,14.65
2017-03-10T17:09:21.094Z,14.63
2017-03-10T17:10:20.266Z,13.17
2017-03-10T17:11:19.247Z,15.30
2017-03-10T17:12:18.271Z,13.70
2017-03-10T17:13:17.417Z,15.08
2017-03-10T17:14:16.398Z,20.45
2017-03-10T17:15:15.370Z,19.52
2017-03-10T17:16:14.395Z,14.07
2017-03-10T17:17:13.391Z,14.17
2017-03-10T17:18:11.981Z,18.93
2017-03-10T17:19:10.947Z,12.73
2017-03-10T17:20:09.580Z,10.57
2017-03-10T17:21:08.551Z,13.23
2017-03-10T17:22:07.550Z,12.77
2017-03-10T17:23:06.507Z,11.17
2017-03-10T17:24:05.593Z,16.45
2017-03-10T17:25:04.579Z,10.52
2017-03-10T17:26:03.649Z,15.73
2017-03-10T17:27:02.621Z,9.67
2017-03-10T17:28:01.148Z,17.47
2017-03-10T17:29:00.158Z,13.02
2017-03-10T17:29:59.109Z,13.53
2017-03-10T17:30:58.077Z,10.40
2017-03-10T17:31:57.130Z,13.35
2017-03-10T17:32:56.113Z,13.32
2017-03-10T17:33:55.155Z,10.35
2017-03-10T17:34:54.164Z,13.40
2017-03-10T17:35:53.606Z,11.48
2017-03-10T17:36:52.574Z,14.03
2017-03-10T17:37:51.594Z,15.63
2017-03-10T17:38:50.633Z,10.60
2017-03-10T17:39:49.634Z,14.90
2017-03-10T17:40:48.997Z,12.88
2017-03-10T17:41:48.008Z,11.40
2017-03-10T17:42:46.985Z,14.88
2017-03-10T17:43:45.973Z,12.93
2017-03-10T17:44:44.966Z,11.50
2017-03-10T17:45:44.095Z,12.92
2017-03-10T17:46:43.287Z,9.55
2017-03-10T17:47:42.281Z,14.72
2017-03-10T17:48:41.255Z,13.40
2017-03-10T17:49:39.781Z,9.93
2017-03-10T17:50:39.834Z,13.42
2017-03-10T17:51:38.424Z,9.28
2017-03-10T17:52:37.388Z,18.73
2017-03-10T17:53:36.022Z,11.38
2017-03-10T17:54:34.970Z,9.02
2017-03-10T17:55:34.012Z,11.08
2017-03-10T17:56:33.003Z,6.93
2017-03-10T17:57:32.039Z,16.70
2017-03-10T17:58:31.066Z,13.67
2017-03-10T17:59:29.789Z,13.32
2017-03-10T18:00:28.690Z,9.50
2017-03-10T18:01:27.743Z,9.28
2017-03-10T18:02:26.734Z,14.20
2017-03-10T18:03:25.719Z,10.12
2017-03-10T18:04:24.743Z,12.15
2017-03-10T18:05:23.751Z,14.58
2017-03-10T18:06:22.811Z,12.58
2017-03-10T18:07:22.026Z,11.12
2017-03-10T18:08:21.017Z,10.27
2017-03-10T18:09:20.044Z,17.95
2017-03-10T18:10:19.051Z,8.60
2017-03-10T18:11:18.066Z,12.28
2017-03-10T18:12:17.115Z,11.78
2017-03-10T18:13:16.180Z,9.63
2017-03-10T18:14:15.273Z,16.60
2017-03-10T18:15:14.243Z,12.53
2017-03-10T18:16:13.218Z,11.28
2017-03-10T18:17:12.202Z,6.78
2017-03-10T18:18:11.232Z,18.77
2017-03-10T18:19:10.226Z,12.13
2017-03-10T18:20:09.279Z,13.97
2017-03-10T18:21:08.234Z,14.35
2017-03-10T18:22:07.287Z,15.52
2017-03-10T18:23:05.875Z,14.23
2017-03-10T18:24:04.623Z,7.02
2017-03-10T18:25:03.572Z,15.57
2017-03-10T18:26:02.141Z,13.62
2017-03-10T18:27:01.135Z,16.68
2017-03-10T18:28:00.087Z,16.82
2017-03-10T18:28:59.026Z,15.83
2017-03-10T18:29:58.054Z,17.70
2017-03-10T18:30:57.078Z,15.33
2017-03-10T18:31:56.070Z,11.97
2017-03-10T18:32:55.090Z,14.03
2017-03-10T18:33:54.140Z,15.10
2017-03-10T18:34:53.103Z,16.53
2017-03-10T18:35:52.105Z,7.32
2017-03-10T18:36:51.090Z,14.22
2017-03-10T18:37:50.682Z,19.47
2017-03-10T18:38:49.739Z,10.50
2017-03-10T18:39:48.878Z,12.80
2017-03-10T18:40:47.902Z,14.43
2017-03-10T18:41:47.635Z,11.13
2017-03-10T18:42:46.672Z,10.47
2017-03-10T18:43:45.607Z,11.20
2017-03-10T18:44:44.589Z,14.23
2017-03-10T18:45:43.582Z,8.68
2017-03-10T18:46:42.650Z,10.08
2017-03-10T18:47:41.778Z,17.10
2017-03-10T18:48:40.899Z,8.70
2017-03-10T18:49:39.471Z,14.57
2017-03-10T18:50:38.455Z,9.93
2017-03-10T18:51:37.461Z,16.42
2017-03-10T18:52:36.447Z,20.15
2017-03-10T18:53:35.483Z,14.42
2017-03-10T18:54:34.512Z,12.38
2017-03-10T18:55:33.221Z,10.25
2017-03-10T18:56:32.308Z,11.80
2017-03-10T18:57:32.966Z,21.32
2017-03-10T18:58:31.715Z,10.57
2017-03-10T18:59:30.648Z,16.77
2017-03-10T19:00:29.718Z,18.08
2017-03-10T19:01:32.108Z,15.88
2017-03-10T19:02:31.396Z,11.83
2017-03-10T19:03:30.094Z,17.30
2017-03-10T19:04:28.657Z,14.57
2017-03-10T19:05:27.690Z,18.98
2017-03-10T19:06:26.679Z,22.67
2017-03-10T19:07:25.327Z,14.10
2017-03-10T19:08:24.283Z,16.62
2017-03-10T19:09:23.343Z,17.68
2017-03-10T19:10:22.346Z,17.32
2017-03-10T19:11:20.898Z,15.25
2017-03-10T19:12:20.058Z,16.25
2017-03-10T19:13:19.193Z,14.60
2017-03-10T19:14:17.775Z,15.62
2017-03-10T19:15:16.528Z,17.15
2017-03-10T19:16:15.548Z,25.15
2017-03-10T19:17:14.573Z,25.10
2017-03-10T19:18:13.711Z,17.65
2017-03-10T19:19:12.813Z,33.12
2017-03-10T19:20:11.880Z,34.88
2017-03-10T19:21:10.993Z,64.30
2017-03-10T19:22:10.497Z,51.55
2017-03-10T19:23:09.542Z,64.83
2017-03-10T19:24:08.851Z,78.35
2017-03-10T19:25:08.225Z,54.47
2017-03-10T19:26:07.479Z,42.08
2017-03-10T19:27:06.658Z,51.43
2017-03-10T19:28:06.301Z,52.28
2017-03-10T19:29:05.376Z,48.00
2017-03-10T19:30:05.136Z,46.62
2017-03-10T19:31:04.207Z,44.87
2017-03-10T19:32:03.975Z,36.28
2017-03-10T19:33:03.229Z,40.32
2017-03-10T19:34:04.110Z,36.60
2017-03-10T19:35:04.193Z,43.58
2017-03-10T19:36:03.770Z,27.53
2017-03-10T19:37:03.352Z,30.13
2017-03-10T19:38:03.042Z,34.88
2017-03-10T19:39:03.351Z,22.20
2017-03-10T19:40:03.428Z,25.08
2017-03-10T19:41:03.664Z,21.98
2017-03-10T19:42:04.249Z,16.75
2017-03-10T19:43:05.019Z,17.47
2017-03-10T19:44:05.714Z,16.18
2017-03-10T19:45:06.945Z,14.83
2017-03-10T19:46:08.056Z,17.65
2017-03-10T19:47:09.165Z,20.62
2017-03-10T19:48:10.487Z,20.43
2017-03-10T19:49:11.557Z,20.33
2017-03-10T19:50:12.680Z,15.15
2017-03-10T19:51:16.441Z,17.22
2017-03-10T19:52:17.847Z,16.32
2017-03-10T19:53:18.759Z,17.23
2017-03-10T19:54:19.906Z,19.85
2017-03-10T19:55:20.937Z,15.00
2017-03-10T19:56:23.097Z,20.23
2017-03-10T19:57:24.354Z,24.23
2017-03-10T19:58:25.240Z,21.57
2017-03-10T19:59:26.412Z,25.43
2017-03-10T20:00:27.553Z,21.97
2017-03-10T20:01:28.658Z,26.23
2017-03-10T20:02:29.591Z,20.33
2017-03-10T20:03:30.580Z,20.15
2017-03-10T20:04:31.867Z,23.88
2017-03-10T20:05:33.273Z,32.00
2017-03-10T20:06:34.717Z,38.10
2017-03-10T20:07:36.344Z,32.95
2017-03-10T20:08:37.596Z,29.42
2017-03-10T20:09:38.938Z,23.03
2017-03-10T20:10:39.913Z,29.17
2017-03-10T20:11:42.056Z,21.73
2017-03-10T20:12:42.958Z,36.38
2017-03-10T20:13:44.274Z,18.25
2017-03-10T20:14:45.619Z,28.75
2017-03-10T20:15:46.978Z,32.35
2017-03-10T20:16:48.665Z,36.00
2017-03-10T20:17:50.005Z,26.60
2017-03-10T20:18:51.341Z,35.05
2017-03-10T20:19:52.596Z,29.40
2017-03-10T20:20:53.538Z,30.50
2017-03-10T20:21:55.125Z,23.05
2017-03-10T20:22:56.792Z,23.97
2017-03-10T20:23:57.703Z,30.23
2017-03-10T20:24:59.877Z,25.40
2017-03-10T20:26:01.246Z,25.68
2017-03-10T20:27:02.971Z,32.67
2017-03-10T20:28:04.444Z,32.38
2017-03-10T20:29:05.742Z,24.25
2017-03-10T20:30:07.449Z,20.88
2017-03-10T20:31:08.934Z,27.87
2017-03-10T20:32:10.303Z,26.97
2017-03-10T20:33:11.597Z,26.07
2017-03-10T20:34:12.936Z,24.27
2017-03-10T20:35:14.348Z,37.98
2017-03-10T20:36:15.314Z,26.20
2017-03-10T20:37:16.636Z,34.97
2017-03-10T20:38:17.516Z,34.28
2017-03-10T20:39:18.871Z,30.12
2017-03-10T20:40:20.204Z,27.80
2017-03-10T20:41:22.322Z,40.73
2017-03-10T20:42:23.323Z,35.28
2017-03-10T20:43:24.611Z,27.92
2017-03-10T20:44:25.853Z,29.73
2017-03-10T20:45:27.281Z,36.77
2017-03-10T20:46:28.189Z,32.42
2017-03-10T20:47:29.572Z,29.47
2017-03-10T20:48:31.012Z,29.22
2017-03-10T20:49:32.644Z,39.82
2017-03-10T20:50:34.038Z,30.12
2017-03-10T20:51:36.065Z,37.28
2017-03-10T20:52:37.452Z,27.38
2017-03-10T20:53:39.067Z,24.37
2017-03-10T20:54:41.385Z,31.30
2017-03-10T20:55:42.728Z,31.63
2017-03-10T20:56:44.251Z,43.27
2017-03-10T20:57:45.632Z,34.73
2017-03-10T20:58:46.916Z,50.67
2017-03-10T20:59:48.310Z,31.70
2017-03-10T21:00:49.674Z,43.55
2017-03-10T21:01:51.177Z,46.47
2017-03-10T21:02:52.510Z,42.78
2017-03-10T21:03:55.640Z,57.62
2017-03-10T21:04:57.282Z,42.72
2017-03-10T21:05:59.334Z,47.80
2017-03-10T21:07:00.614Z,41.72
2017-03-10T21:08:02.137Z,45.42
2017-03-10T21:09:03.429Z,69.53
2017-03-10T21:10:04.769Z,57.02
2017-03-10T21:11:06.132Z,53.10
2017-03-10T21:12:08.060Z,44.02
2017-03-10T21:13:09.382Z,40.07
2017-03-10T21:14:10.793Z,44.68
2017-03-10T21:15:12.124Z,45.82
2017-03-10T21:16:13.373Z,51.47
2017-03-10T21:17:14.890Z,47.63
2017-03-10T21:18:15.867Z,43.92
2017-03-10T21:19:17.205Z,58.97
2017-03-10T21:20:18.609Z,35.48
2017-03-10T21:21:19.966Z,30.38
2017-03-10T21:22:22.073Z,35.35
2017-03-10T21:23:23.477Z,35.83
2017-03-10T21:24:24.865Z,45.00
2017-03-10T21:25:26.260Z,33.23
2017-03-10T21:26:27.880Z,35.47
2017-03-10T21:27:29.263Z,30.92
2017-03-10T21:28:30.485Z,43.70
2017-03-10T21:29:31.891Z,32.62
2017-03-10T21:30:32.841Z,58.60
2017-03-10T21:31:35.163Z,34.03
2017-03-10T21:32:36.377Z,34.22
2017-03-10T21:33:37.620Z,40.10
2017-03-10T21:34:38.521Z,46.78
2017-03-10T21:35:40.031Z,44.73
2017-03-10T21:36:41.487Z,36.17
2017-03-10T21:37:43.227Z,39.38
2017-03-10T21:38:44.872Z,45.07
2017-03-10T21:39:46.092Z,40.55
2017-03-10T21:40:47.246Z,47.48
2017-03-10T21:41:48.506Z,40.52
2017-03-10T21:42:49.659Z,48.35
2017-03-10T21:43:50.930Z,37.15
2017-03-10T21:44:52.244Z,32.70
2017-03-10T21:45:53.554Z,53.27
2017-03-10T21:46:54.950Z,57.07
2017-03-10T21:47:56.562Z,53.63
2017-03-10T21:48:57.550Z,36.52
2017-03-10T21:49:57.335Z,48.10
2017-03-10T21:50:57.639Z,42.80
2017-03-10T21:51:58.071Z,38.47
2017-03-10T21:52:58.497Z,27.60
2017-03-10T21:53:59.398Z,33.80
2017-03-10T21:54:59.709Z,46.57
2017-03-10T21:55:59.477Z,32.43
2017-03-10T21:56:59.186Z,41.47
2017-03-10T21:57:58.686Z,38.53
2017-03-10T21:58:58.115Z,37.83
2017-03-10T21:59:57.865Z,44.78
2017-03-10T22:00:57.304Z,54.37
2017-03-10T22:01:57.009Z,43.63
2017-03-10T22:02:56.613Z,51.72
2017-03-10T22:03:56.422Z,53.72
2017-03-10T22:04:56.121Z,44.25
2017-03-10T22:05:55.341Z,64.25
2017-03-10T22:06:54.486Z,67.78
2017-03-10T22:07:53.552Z,55.57
2017-03-10T22:08:52.805Z,56.48
2017-03-10T22:09:52.010Z,54.83
2017-03-10T22:10:51.189Z,47.52
2017-03-10T22:11:50.409Z,44.70
2017-03-10T22:12:49.619Z,47.33
2017-03-10T22:13:48.624Z,55.18
2017-03-10T22:14:47.787Z,50.12
2017-03-10T22:15:47.047Z,46.40
2017-03-10T22:16:46.111Z,49.73
2017-03-10T22:17:45.090Z,49.08
2017-03-10T22:18:44.499Z,47.80
2017-03-10T22:19:43.550Z,48.90
2017-03-10T22:20:42.522Z,44.05
2017-03-10T22:21:41.112Z,37.02
2017-03-10T22:22:40.114Z,37.87
2017-03-10T22:23:39.137Z,42.07
2017-03-10T22:24:38.170Z,50.20
2017-03-10T22:25:37.326Z,48.02
2017-03-10T22:26:36.397Z,63.85
2017-03-10T22:27:35.455Z,74.40
2017-03-10T22:28:34.437Z,94.03
2017-03-10T22:29:33.523Z,63.33
2017-03-10T22:30:32.547Z,74.25
2017-03-10T22:31:31.489Z,62.30
2017-03-10T22:32:30.175Z,45.72
2017-03-10T22:33:29.163Z,52.75
2017-03-10T22:34:28.169Z,53.95
2017-03-10T22:35:27.138Z,50.13
2017-03-10T22:36:26.176Z,46.65
2017-03-10T22:37:25.161Z,44.00
2017-03-10T22:38:23.864Z,36.90
2017-03-10T22:39:22.946Z,35.42
2017-03-10T22:40:21.979Z,41.63
2017-03-10T22:41:20.971Z,59.85
2017-03-10T22:42:20.154Z,42.83
2017-03-10T22:43:19.155Z,42.68
2017-03-10T22:44:18.142Z,47.10
2017-03-10T22:45:17.115Z,32.17
2017-03-10T22:46:16.543Z,38.65
2017-03-10T22:47:15.625Z,35.63
2017-03-10T22:48:14.647Z,36.73
2017-03-10T22:49:13.791Z,27.77
2017-03-10T22:50:12.987Z,35.63
2017-03-10T22:51:12.011Z,38.70
2017-03-10T22:52:11.074Z,41.60
2017-03-10T22:53:10.067Z,40.50
2017-03-10T22:54:09.135Z,40.22
2017-03-10T22:55:07.770Z,30.10
2017-03-10T22:56:06.754Z,34.42
2017-03-10T22:57:05.744Z,30.32
2017-03-10T22:58:04.755Z,26.48
2017-03-10T22:59:03.358Z,28.72
2017-03-10T23:00:02.391Z,36.32
2017-03-10T23:01:01.389Z,36.13
2017-03-10T23:02:00.451Z,31.05
2017-03-10T23:02:59.460Z,37.47
2017-03-10T23:03:58.531Z,35.58
2017-03-10T23:04:57.634Z,39.17
2017-03-10T23:05:57.066Z,30.32
2017-03-10T23:06:56.043Z,34.13
2017-03-10T23:07:54.654Z,42.02
2017-03-10T23:08:56.233Z,36.98
2017-03-10T23:09:55.610Z,32.37
2017-03-10T23:10:54.603Z,26.10
2017-03-10T23:11:56.231Z,38.28
2017-03-10T23:12:55.610Z,29.62
2017-03-10T23:13:54.630Z,25.75
2017-03-10T23:14:53.210Z,37.45
2017-03-10T23:15:51.839Z,30.68
2017-03-10T23:16:50.886Z,28.35
2017-03-10T23:17:49.894Z,27.47
2017-03-10T23:18:48.559Z,33.50
2017-03-10T23:19:47.579Z,26.38
2017-03-10T23:20:46.296Z,24.70
2017-03-10T23:21:45.313Z,31.70
2017-03-10T23:22:44.306Z,26.73
2017-03-10T23:23:43.324Z,24.00
2017-03-10T23:24:42.319Z,29.03
2017-03-10T23:25:41.399Z,34.03
2017-03-10T23:26:40.432Z,26.02
2017-03-10T23:27:39.460Z,29.70
2017-03-10T23:28:38.520Z,28.98
2017-03-10T23:29:38.057Z,38.92
2017-03-10T23:30:37.340Z,31.93
2017-03-10T23:31:40.315Z,32.02
2017-03-10T23:32:39.318Z,34.95
2017-03-10T23:33:38.283Z,22.80
2017-03-10T23:34:37.272Z,27.25
2017-03-10T23:35:36.278Z,30.62
2017-03-10T23:36:34.886Z,29.55
2017-03-10T23:37:34.116Z,25.77
2017-03-10T23:38:33.112Z,30.85
2017-03-10T23:39:32.505Z,40.73
2017-03-10T23:40:31.527Z,28.43
2017-03-10T23:41:30.792Z,55.75
2017-03-10T23:42:29.800Z,57.73
2017-03-10T23:43:30.068Z,51.48
2017-03-10T23:44:29.151Z,60.20
2017-03-10T23:45:28.595Z,67.18
2017-03-10T23:46:27.604Z,70.52
2017-03-10T23:47:28.235Z,75.70
2017-03-10T23:48:27.084Z,56.55
2017-03-10T23:49:26.149Z,53.98
2017-03-10T23:50:25.246Z,46.87
2017-03-10T23:51:24.604Z,50.87
2017-03-10T23:52:23.758Z,48.48
2017-03-10T23:53:22.780Z,33.82
2017-03-10T23:54:21.778Z,26.35
2017-03-10T23:55:21.057Z,27.03
2017-03-10T23:56:20.745Z,38.63
2017-03-10T23:57:20.237Z,35.67
2017-03-10T23:58:19.702Z,25.52
2017-03-10T23:59:18.716Z,30.65
